Time;durP1;ratioP1;P1;durP2;ratioP2;P2;SDS_P1;SDS_P2;PMS_P1;PMS_P2;Temp;Humidity;BMP_temperature;BMP_pressure;BME280_temperature;BME280_humidity;BME280_pressure;Samples;Min_cycle;Max_cycle;Signal;HPM_P1;HPM_P2
2022/01/20 00:00:20;;;;;;;15.65;6.28;;;;;;;-3.53;76.61;97716.56;5062745;28;20067;-63
2022/01/20 00:02:57;;;;;;;17.63;5.63;;;;;;;-3.58;76.94;97719.25;5062954;28;20076;-65
2022/01/20 00:08:20;;;;;;;16.92;6.68;;;;;;;-3.47;76.68;97715.50;5063339;28;20055;-64
2022/01/20 00:27:20;;;;;;;25.52;8.35;;;;;;;-4.05;76.05;97623.78;5086566;28;20056;-63
2022/01/20 00:37:36;;;;;;;34.25;10.70;;;;;;;-3.74;76.39;97698.59;5086434;28;20433;-63
2022/01/20 00:40:04;;;;;;;28.48;11.27;;;;;;;-3.65;77.13;97714.06;5086178;28;20052;-64
2022/01/20 00:42:31;;;;;;;33.78;12.70;;;;;;;-3.53;76.71;97721.97;5085974;28;20060;-64
2022/01/20 00:44:58;;;;;;;41.50;15.27;;;;;;;-4.36;75.92;97582.25;5084631;28;20060;-65
2022/01/20 00:47:24;;;;;;;36.33;13.05;;;;;;;-3.64;75.85;97706.78;5085946;28;20055;-62
2022/01/20 00:49:51;;;;;;;35.17;10.82;;;;;;;-4.25;75.93;97626.38;5085796;28;20523;-64
2022/01/20 00:52:18;;;;;;;29.48;10.73;;;;;;;-3.79;77.16;97701.25;5084011;28;20056;-62
2022/01/20 00:54:45;;;;;;;22.52;9.00;;;;;;;-3.83;77.41;97678.53;5085777;28;20059;-62
2022/01/20 00:57:13;;;;;;;28.58;11.18;;;;;;;-3.74;76.80;97698.59;5084784;28;20056;-63
2022/01/20 00:59:39;;;;;;;27.33;8.88;;;;;;;-3.82;77.36;97690.97;5084454;28;20059;-63
2022/01/20 01:02:09;;;;;;;22.88;9.10;;;;;;;-3.69;77.52;97693.22;5085930;28;20064;-63
2022/01/20 01:04:39;;;;;;;23.60;8.30;;;;;;;-4.31;77.61;97601.19;5085824;28;20121;-63
2022/01/20 01:09:44;;;;;;;20.88;9.30;;;;;;;-4.14;77.12;97623.44;5085641;28;20059;-63
2022/01/20 01:12:17;;;;;;;25.67;8.95;;;;;;;-3.84;77.26;97676.91;5085689;28;20060;-64
2022/01/20 01:14:49;;;;;;;23.38;8.30;;;;;;;-5.21;76.99;97471.78;5079777;28;20051;-66
2022/01/20 01:22:30;;;;;;;36.10;11.93;;;;;;;-4.13;77.08;97640.50;5065432;28;20056;-63
2022/01/20 01:24:58;;;;;;;45.72;13.88;;;;;;;-3.97;76.75;97661.16;5063730;28;20056;-63
2022/01/20 01:27:27;;;;;;;41.08;13.55;;;;;;;-4.04;77.13;97665.97;5063178;28;20502;-64
2022/01/20 01:32:26;;;;;;;32.17;10.82;;;;;;;-4.21;77.16;97638.28;5064643;28;20060;-62
2022/01/20 01:34:54;;;;;;;25.48;8.93;;;;;;;-4.10;77.31;97653.50;5064884;28;20542;-64
2022/01/20 01:40:13;;;;;;;20.30;7.35;;;;;;;-4.31;77.63;97616.59;5061723;28;20058;-64
2022/01/20 01:42:46;;;;;;;21.30;7.80;;;;;;;-4.23;77.09;97624.22;5064470;28;20579;-64
2022/01/20 01:45:15;;;;;;;28.63;9.38;;;;;;;-4.15;77.13;97648.06;5064609;28;20084;-64
2022/01/20 01:47:41;;;;;;;31.80;10.35;;;;;;;-4.63;77.55;97575.34;5065457;28;20052;-64
2022/01/20 01:50:08;;;;;;;39.40;9.38;;;;;;;-4.31;77.90;97603.06;5064936;28;20052;-64
2022/01/20 01:52:35;;;;;;;26.95;8.95;;;;;;;-4.32;77.68;97614.97;5062938;28;20067;-62
2022/01/20 01:55:04;;;;;;;27.38;9.93;;;;;;;-4.31;78.19;97636.34;5062895;28;20048;-63
2022/01/20 01:57:31;;;;;;;30.27;9.55;;;;;;;-4.70;78.06;97584.50;5063933;28;20083;-63
2022/01/20 01:59:58;;;;;;;30.65;8.43;;;;;;;-4.37;78.64;97628.47;5064320;28;20064;-64
2022/01/20 02:02:24;;;;;;;30.40;8.68;;;;;;;-4.24;77.91;97628.00;5062515;28;20538;-63
2022/01/20 02:04:51;;;;;;;32.53;9.27;;;;;;;-4.80;78.24;97534.97;5064668;28;20071;-62
2022/01/20 02:18:35;;;;;;;58.75;17.88;;;;;;;-4.27;77.56;97612.31;5082777;28;20278;-63
2022/01/20 02:20:59;;;;;;;71.40;25.67;;;;;;;-4.29;77.58;97609.03;5084025;28;20154;-62
2022/01/20 02:23:27;;;;;;;120.30;53.53;;;;;;;-4.39;77.90;97598.19;5084068;28;20523;-63
2022/01/20 02:25:53;;;;;;;104.03;45.70;;;;;;;-4.94;78.36;97526.50;5083135;28;20166;-64
2022/01/20 02:28:20;;;;;;;64.05;25.70;;;;;;;-4.41;78.45;97605.75;5084195;28;20052;-64
2022/01/20 02:30:47;;;;;;;87.18;34.97;;;;;;;-4.43;78.38;97608.72;5084022;28;20082;-64
2022/01/20 02:33:20;;;;;;;35.45;16.15;;;;;;;-4.63;78.20;97564.53;5083219;28;20075;-63
2022/01/20 02:35:50;;;;;;;35.58;9.82;;;;;;;-4.30;77.98;97591.22;5082504;28;20062;-63
2022/01/20 02:46:20;;;;;;;39.78;14.20;;;;;;;-4.44;78.80;97590.84;5084025;28;20048;-63
2022/01/20 02:48:47;;;;;;;47.38;14.30;;;;;;;-5.18;79.21;97460.47;5082591;28;20151;-62
2022/01/20 02:51:14;;;;;;;52.00;15.98;;;;;;;-4.56;79.56;97554.28;5082157;28;20066;-65
2022/01/20 02:53:41;;;;;;;50.83;15.63;;;;;;;-4.35;79.02;97573.06;5083655;28;20052;-62
2022/01/20 02:56:08;;;;;;;57.70;17.08;;;;;;;-4.34;79.37;97580.09;5083808;28;20060;-62
2022/01/20 02:58:35;;;;;;;29.27;11.63;;;;;;;-4.39;79.61;97576.56;5083745;28;20055;-63
2022/01/20 03:01:02;;;;;;;44.83;15.35;;;;;;;-4.37;79.99;97568.97;5084359;28;20078;-63
2022/01/20 03:03:29;;;;;;;32.60;10.27;;;;;;;-4.93;79.70;97505.69;5083682;28;20374;-63
2022/01/20 03:05:55;;;;;;;32.45;11.88;;;;;;;-4.81;79.41;97507.16;5082232;28;20048;-63
2022/01/20 03:08:22;;;;;;;22.60;8.52;;;;;;;-4.34;79.68;97569.28;5083288;28;20048;-64
2022/01/20 03:10:49;;;;;;;37.65;10.38;;;;;;;-4.32;78.69;97567.13;5082097;28;20065;-63
2022/01/20 03:13:16;;;;;;;45.92;12.65;;;;;;;-4.84;78.64;97487.94;5083412;28;20048;-62
2022/01/20 03:15:43;;;;;;;26.80;9.70;;;;;;;-4.32;78.54;97560.91;5070591;28;20140;-62
2022/01/20 03:18:10;;;;;;;15.18;6.82;;;;;;;-4.81;79.18;97503.63;5063806;28;20052;-63
2022/01/20 03:20:37;;;;;;;21.10;7.82;;;;;;;-4.46;78.70;97549.78;5061944;28;20045;-63
2022/01/20 03:23:04;;;;;;;24.95;8.23;;;;;;;-4.59;78.97;97538.59;5061971;28;20389;-64
2022/01/20 03:25:31;;;;;;;27.27;8.35;;;;;;;-4.58;79.59;97545.66;5061719;28;20049;-64
2022/01/20 03:27:58;;;;;;;17.02;7.80;;;;;;;-4.77;78.85;97513.66;5063052;28;20068;-62
2022/01/20 03:30:27;;;;;;;21.83;6.90;;;;;;;-4.57;79.34;97549.97;5061848;28;20052;-64
2022/01/20 03:32:53;;;;;;;24.52;6.93;;;;;;;-5.03;78.90;97490.28;5063744;28;20063;-63
2022/01/20 03:35:20;;;;;;;30.63;9.02;;;;;;;-4.61;79.20;97538.84;5062327;28;20065;-64
2022/01/20 03:37:47;;;;;;;17.15;7.85;;;;;;;-4.99;79.21;97490.53;5063385;28;20059;-64
2022/01/20 03:40:14;;;;;;;33.85;10.45;;;;;;;-4.62;78.75;97556.94;5063222;28;20239;-63
2022/01/20 03:42:41;;;;;;;42.85;11.73;;;;;;;-7.52;78.42;97080.41;5063593;28;20049;-63
2022/01/20 03:45:08;;;;;;;30.73;10.93;;;;;;;-4.96;79.09;97488.16;5066926;28;20072;-63
2022/01/20 03:47:35;;;;;;;34.03;10.80;;;;;;;-5.10;78.99;97468.06;5066954;28;20408;-63
2022/01/20 03:52:30;;;;;;;25.48;8.80;;;;;;;-4.83;78.44;97512.00;5066661;28;20052;-62
2022/01/20 03:54:56;;;;;;;25.10;7.70;;;;;;;-4.68;79.18;97533.69;5066983;28;20063;-63
2022/01/20 03:57:23;;;;;;;19.65;7.30;;;;;;;-4.68;78.13;97535.59;5066362;28;20052;-63
2022/01/20 03:59:50;;;;;;;30.05;10.75;;;;;;;-4.74;78.30;97532.03;5067112;28;20052;-62
2022/01/20 04:02:17;;;;;;;37.28;11.95;;;;;;;-4.89;78.46;97523.84;5066943;28;20071;-64
2022/01/20 04:04:43;;;;;;;26.85;9.30;;;;;;;-4.82;79.19;97540.63;5066243;28;20713;-62
2022/01/20 04:07:11;;;;;;;35.20;12.75;;;;;;;-4.88;78.84;97538.97;5064868;28;20107;-64
2022/01/20 04:09:37;;;;;;;52.45;20.65;;;;;;;-4.90;78.62;97543.03;5066638;28;20066;-61
2022/01/20 04:12:04;;;;;;;57.13;18.17;;;;;;;-4.95;77.58;97535.66;5066759;28;20064;-63
2022/01/20 04:14:33;;;;;;;47.50;16.73;;;;;;;-5.04;78.16;97534.53;5069099;28;20533;-64
2022/01/20 04:17:04;;;;;;;25.65;11.13;;;;;;;-5.94;79.19;97423.22;5084820;28;20056;-65
2022/01/20 04:19:32;;;;;;;24.75;8.93;;;;;;;-5.20;79.32;97532.78;5086952;28;20102;-63
2022/01/20 04:22:00;;;;;;;21.83;9.02;;;;;;;-5.07;79.53;97532.34;5086136;28;20507;-63
2022/01/20 04:24:27;;;;;;;25.80;11.55;;;;;;;-5.03;79.34;97533.50;5085170;28;20058;-65
2022/01/20 04:26:55;;;;;;;27.23;10.43;;;;;;;-5.00;79.29;97530.25;5086346;28;20063;-65
2022/01/20 04:29:22;;;;;;;32.35;11.77;;;;;;;-5.10;79.35;97510.44;5086251;28;20564;-64
2022/01/20 04:31:50;;;;;;;32.55;12.70;;;;;;;-4.92;78.51;97545.97;5086119;28;20062;-63
2022/01/20 04:34:17;;;;;;;36.90;12.52;;;;;;;-4.98;78.54;97525.38;5086076;28;20109;-63
2022/01/20 04:36:46;;;;;;;33.30;12.07;;;;;;;-5.04;79.38;97525.63;5084667;28;20056;-64
2022/01/20 04:39:17;;;;;;;32.03;12.50;;;;;;;-5.01;79.82;97525.91;5086132;28;20051;-63
2022/01/20 04:41:45;;;;;;;38.60;12.40;;;;;;;-5.39;80.03;97474.88;5086424;28;20088;-62
2022/01/20 04:45:02;;;;;;;39.03;9.40;;;;;;;-5.61;79.54;97411.34;5086321;28;20863;-62
2022/01/20 04:57:55;;;;;;;32.35;11.40;;;;;;;-5.12;80.66;97526.91;5086000;28;20074;-65
2022/01/20 05:00:21;;;;;;;37.42;10.55;;;;;;;-5.76;79.94;97409.31;5085846;28;20386;-62
2022/01/20 05:02:48;;;;;;;42.47;13.65;;;;;;;-4.98;80.47;97514.59;5085890;28;20044;-62
2022/01/20 05:05:15;;;;;;;29.77;10.45;;;;;;;-5.47;79.86;97434.09;5086159;28;20052;-63
2022/01/20 05:07:42;;;;;;;41.42;13.13;;;;;;;-4.99;80.05;97522.94;5086239;28;20307;-65
2022/01/20 05:10:12;;;;;;;41.55;13.27;;;;;;;-4.95;79.59;97534.88;5084365;28;20060;-68
2022/01/20 05:15:19;;;;;;;48.08;17.58;;;;;;;-5.32;78.80;97467.41;5076149;28;20053;-61
2022/01/20 05:17:46;;;;;;;60.70;23.40;;;;;;;-5.00;78.48;97535.66;5065342;28;20052;-61
2022/01/20 05:20:13;;;;;;;51.42;21.15;;;;;;;-5.29;78.45;97480.38;5064977;28;20060;-66
2022/01/20 05:22:44;;;;;;;56.22;20.77;;;;;;;-5.00;78.84;97524.88;5065291;28;20048;-66
2022/01/20 05:25:13;;;;;;;62.88;22.58;;;;;;;-5.29;79.90;97474.97;5065145;28;20071;-63
2022/01/20 05:27:40;;;;;;;87.82;27.02;;;;;;;-5.06;80.21;97520.47;5065036;28;20059;-62
2022/01/20 05:30:07;;;;;;;82.53;27.17;;;;;;;-5.67;80.42;97440.13;5063982;28;20044;-66
2022/01/20 05:32:34;;;;;;;46.33;18.42;;;;;;;-5.30;80.00;97500.34;5063406;28;20621;-65
2022/01/20 05:35:01;;;;;;;55.22;19.88;;;;;;;-5.24;80.50;97510.09;5064957;28;20068;-61
2022/01/20 05:37:28;;;;;;;62.22;23.08;;;;;;;-5.13;80.84;97533.41;5064772;28;20048;-65
2022/01/20 05:39:54;;;;;;;88.45;28.23;;;;;;;-5.04;80.16;97521.03;5063726;28;20052;-66
2022/01/20 05:42:21;;;;;;;65.75;23.83;;;;;;;-5.15;80.42;97491.50;5064566;28;20052;-66
2022/01/20 05:44:50;;;;;;;43.17;15.52;;;;;;;-5.07;80.15;97508.06;5064868;28;20059;-66
2022/01/20 05:47:26;;;;;;;40.83;14.65;;;;;;;-5.01;80.02;97507.00;5064607;28;20055;-68
2022/01/20 05:49:52;;;;;;;32.95;12.52;;;;;;;-5.62;80.02;97410.50;5064786;28;20052;-65
2022/01/20 05:52:19;;;;;;;42.10;13.15;;;;;;;-5.06;79.73;97479.97;5064049;28;20063;-66
2022/01/20 05:54:46;;;;;;;39.95;13.55;;;;;;;-4.97;79.60;97500.03;5063459;28;20056;-61
2022/01/20 05:57:13;;;;;;;39.28;14.07;;;;;;;-5.60;79.77;97429.97;5064567;28;20052;-63
2022/01/20 05:59:40;;;;;;;44.58;17.35;;;;;;;-5.34;79.53;97437.13;5064261;28;20056;-66
2022/01/20 06:02:14;;;;;;;59.38;19.25;;;;;;;-5.65;79.48;97372.44;5063881;28;20048;-66
2022/01/20 06:04:41;;;;;;;46.08;16.88;;;;;;;-4.84;80.01;97483.34;5064113;28;20059;-66
2022/01/20 06:07:08;;;;;;;37.45;13.70;;;;;;;-5.36;78.64;97408.81;5062055;28;20052;-66
2022/01/20 06:09:34;;;;;;;37.20;12.93;;;;;;;-4.89;78.28;97491.44;5063727;28;20049;-66
2022/01/20 06:12:01;;;;;;;41.10;15.73;;;;;;;-4.68;78.31;97484.25;5063971;28;20052;-67
2022/01/20 06:14:28;;;;;;;38.05;13.88;;;;;;;-4.80;78.00;97441.25;5064159;28;20049;-66
2022/01/20 06:16:55;;;;;;;30.48;12.35;;;;;;;-4.47;77.95;97498.69;5084113;28;20048;-65
2022/01/20 06:19:24;;;;;;;34.25;12.20;;;;;;;-4.47;77.48;97477.06;5084041;28;20513;-65
2022/01/20 06:21:50;;;;;;;35.08;16.42;;;;;;;-4.51;76.67;97465.94;5084226;28;20055;-66
2022/01/20 06:24:17;;;;;;;41.63;16.70;;;;;;;-4.21;76.06;97494.97;5082650;28;20052;-67
2022/01/20 06:26:44;;;;;;;54.15;22.23;;;;;;;-4.37;75.63;97450.03;5082594;28;20511;-67
2022/01/20 06:29:11;;;;;;;69.43;27.55;;;;;;;-4.04;75.09;97504.50;5084573;28;20552;-66
2022/01/20 06:31:38;;;;;;;83.28;31.42;;;;;;;-4.13;74.81;97462.00;5084213;28;20383;-61
2022/01/20 06:34:04;;;;;;;115.15;40.85;;;;;;;-3.92;74.95;97479.91;5082190;28;20055;-62
2022/01/20 06:36:36;;;;;;;106.03;42.33;;;;;;;-3.76;74.25;97490.50;5084181;28;20056;-66
2022/01/20 06:39:03;;;;;;;107.90;43.53;;;;;;;-4.32;73.71;97382.47;5083501;28;20048;-67
2022/01/20 06:41:35;;;;;;;98.68;35.97;;;;;;;-3.84;74.10;97465.88;5084111;28;20048;-67
2022/01/20 06:44:02;;;;;;;83.80;32.95;;;;;;;-3.51;73.63;97495.13;5084049;28;20076;-62
2022/01/20 06:46:29;;;;;;;176.95;65.15;;;;;;;-3.48;73.93;97486.47;5083607;28;20105;-66
2022/01/20 06:48:56;;;;;;;114.78;44.60;;;;;;;-4.62;72.93;97329.97;5083775;28;20058;-69
2022/01/20 06:51:23;;;;;;;103.88;41.63;;;;;;;-3.22;73.18;97469.13;5082338;28;20056;-60
2022/01/20 06:53:49;;;;;;;79.80;33.40;;;;;;;-3.13;73.11;97468.28;5063858;28;20060;-61
2022/01/20 06:56:16;;;;;;;85.10;33.78;;;;;;;-2.99;72.98;97468.56;5069088;28;20044;-64
2022/01/20 06:59:04;;;;;;;70.18;28.67;;;;;;;-2.81;72.49;97486.16;5081637;28;20048;-60
2022/01/20 07:01:31;;;;;;;67.47;28.05;;;;;;;-2.65;71.92;97483.09;5079859;28;20063;-61
2022/01/20 07:03:58;;;;;;;76.60;29.48;;;;;;;-2.65;72.75;97460.59;5081560;28;20059;-63
2022/01/20 07:06:24;;;;;;;71.32;30.10;;;;;;;-2.51;71.97;97459.75;5082980;28;20048;-62
2022/01/20 07:08:56;;;;;;;73.28;28.35;;;;;;;-2.26;72.01;97473.19;5071455;28;20516;-62
2022/01/20 07:11:22;;;;;;;65.78;24.45;;;;;;;-5.84;70.04;96857.06;5061243;28;20080;-62
2022/01/20 07:13:49;;;;;;;167.90;58.13;;;;;;;-1.81;70.16;97464.81;5061642;28;20064;-65
2022/01/20 07:16:16;;;;;;;75.35;32.22;;;;;;;-2.36;69.21;97429.84;5074873;28;20062;-60
2022/01/20 07:18:43;;;;;;;54.75;22.08;;;;;;;-1.86;69.60;97429.56;5085532;28;20127;-67
2022/01/20 07:21:10;;;;;;;32.22;14.25;;;;;;;-1.79;68.37;97451.75;5085389;28;20059;-61
2022/01/20 07:23:36;;;;;;;26.67;13.07;;;;;;;-1.92;67.71;97398.13;5087863;28;20545;-66
2022/01/20 07:26:04;;;;;;;33.42;11.68;;;;;;;-1.08;66.83;97451.19;5075682;28;20052;-69
2022/01/20 07:28:30;;;;;;;36.35;15.77;;;;;;;-0.87;65.82;97430.88;5067059;28;20048;-69
2022/01/20 07:30:57;;;;;;;34.28;12.93;;;;;;;-0.68;64.97;97429.06;5065693;28;20056;-63
2022/01/20 07:33:24;;;;;;;31.88;13.10;;;;;;;-0.93;63.74;97372.25;5066538;28;20090;-63
2022/01/20 07:35:51;;;;;;;32.58;14.98;;;;;;;-0.37;63.68;97430.31;5066443;28;20064;-63
2022/01/20 07:38:21;;;;;;;46.00;19.90;;;;;;;-0.09;64.11;97427.47;5066850;28;20044;-60
2022/01/20 07:40:47;;;;;;;42.60;18.67;;;;;;;-0.24;63.65;97402.38;5064975;28;20063;-67
2022/01/20 07:43:14;;;;;;;31.27;15.75;;;;;;;-0.01;63.21;97396.88;5066862;28;20122;-62
2022/01/20 07:45:41;;;;;;;38.35;17.90;;;;;;;-0.16;62.75;97333.69;5066736;28;20056;-61
2022/01/20 07:48:08;;;;;;;28.58;13.27;;;;;;;0.63;61.66;97423.41;5066786;28;20541;-64
2022/01/20 07:50:35;;;;;;;21.55;9.82;;;;;;;-0.03;60.47;97294.81;5064875;28;20057;-65
2022/01/20 07:53:03;;;;;;;29.02;10.80;;;;;;;0.33;60.17;97371.31;5066209;28;20052;-63
2022/01/20 07:55:30;;;;;;;26.45;11.50;;;;;;;0.95;60.65;97423.38;5064982;28;20051;-64
2022/01/20 07:57:58;;;;;;;24.02;11.48;;;;;;;0.36;59.53;97292.53;5064631;28;20054;-63
2022/01/20 08:00:25;;;;;;;30.60;14.38;;;;;;;1.07;58.16;97380.09;5065399;28;20590;-61
2022/01/20 08:02:51;;;;;;;39.80;18.27;;;;;;;1.08;57.49;97378.97;5066073;28;20076;-62
2022/01/20 08:05:18;;;;;;;42.53;17.90;;;;;;;0.80;57.61;97309.16;5065899;28;20405;-63
2022/01/20 08:07:45;;;;;;;36.50;15.02;;;;;;;1.73;57.15;97428.72;5065401;28;20044;-64
2022/01/20 08:10:13;;;;;;;44.80;17.20;;;;;;;1.94;56.60;97431.84;5065806;28;20382;-63
2022/01/20 08:12:40;;;;;;;43.67;14.95;;;;;;;2.04;56.54;97409.78;5066081;28;20458;-62
2022/01/20 08:15:09;;;;;;;52.90;17.95;;;;;;;1.93;55.64;97359.22;5069507;28;20074;-66
2022/01/20 08:17:37;;;;;;;50.83;19.83;;;;;;;2.42;55.49;97422.03;5086510;28;20550;-61
2022/01/20 08:20:05;;;;;;;31.17;14.10;;;;;;;1.75;56.25;97398.38;5084559;28;20048;-67
2022/01/20 08:22:34;;;;;;;26.38;10.13;;;;;;;2.28;56.39;97415.78;5086413;28;20146;-60
2022/01/20 08:25:10;;;;;;;13.40;6.47;;;;;;;1.72;57.11;97407.19;5086523;28;20125;-62
2022/01/20 08:27:38;;;;;;;17.95;7.53;;;;;;;0.45;57.68;97165.41;5086360;28;20044;-58
2022/01/20 08:30:07;;;;;;;11.63;6.40;;;;;;;1.63;58.73;97346.22;5084264;28;20052;-64
2022/01/20 08:32:34;;;;;;;12.25;4.75;;;;;;;2.39;57.67;97406.22;5085743;28;20134;-64
2022/01/20 08:35:06;;;;;;;8.77;4.60;;;;;;;2.21;57.53;97360.75;5085931;28;20052;-61
2022/01/20 08:37:33;;;;;;;13.63;6.22;;;;;;;1.38;59.80;97419.31;5085898;28;20517;-62
2022/01/20 08:40:04;;;;;;;15.13;6.53;;;;;;;0.78;59.03;97270.47;5085637;28;20048;-62
2022/01/20 08:42:32;;;;;;;12.38;6.82;;;;;;;1.73;58.93;97408.78;5085180;28;20543;-61
2022/01/20 08:44:59;;;;;;;16.60;6.22;;;;;;;1.56;58.25;97371.22;5080441;28;20052;-65
2022/01/20 08:47:26;;;;;;;11.32;4.97;;;;;;;1.13;58.45;97345.34;5065338;28;20044;-58
2022/01/20 08:49:53;;;;;;;18.33;6.03;;;;;;;1.61;57.22;97346.53;5064233;28;20076;-59
2022/01/20 08:52:21;;;;;;;12.48;4.63;;;;;;;1.98;56.19;97411.78;5065316;28;20087;-59
2022/01/20 08:54:48;;;;;;;10.60;5.38;;;;;;;0.45;57.91;97213.63;5065088;28;20534;-61
2022/01/20 08:57:15;;;;;;;13.38;6.72;;;;;;;1.58;58.09;97418.91;5065847;28;20052;-61
2022/01/20 08:59:42;;;;;;;15.00;6.57;;;;;;;1.79;58.32;97413.06;5064804;28;20590;-64
2022/01/20 09:02:10;;;;;;;16.25;5.95;;;;;;;-0.20;56.19;97008.75;5065154;28;20053;-63
2022/01/20 09:04:38;;;;;;;17.55;5.88;;;;;;;2.34;54.64;97354.44;5064108;28;20068;-61
2022/01/20 09:07:05;;;;;;;11.90;4.90;;;;;;;3.01;54.10;97407.97;5063818;28;20171;-62
2022/01/20 09:09:41;;;;;;;11.75;4.95;;;;;;;0.21;53.56;96979.59;5064112;28;20057;-61
2022/01/20 09:17:26;;;;;;;14.60;5.43;;;;;;;3.20;53.55;97405.00;5084919;28;20135;-62
2022/01/20 09:19:53;;;;;;;12.32;4.10;;;;;;;2.89;52.64;97295.59;5083623;28;20056;-62
2022/01/20 09:22:20;;;;;;;9.13;4.57;;;;;;;3.19;52.06;97256.44;5084800;28;20055;-64
2022/01/20 09:24:48;;;;;;;67.93;52.85;;;;;;;3.83;51.31;97299.38;5084410;28;20054;-62
2022/01/20 09:27:15;;;;;;;15.07;5.20;;;;;;;4.26;51.00;97302.16;5083383;28;20059;-63
2022/01/20 09:29:42;;;;;;;11.35;5.05;;;;;;;4.20;49.42;97320.72;5064384;28;20058;-63
2022/01/20 09:32:12;;;;;;;36.33;11.82;;;;;;;4.68;49.77;97360.84;4712698;28;10009587;-61
2022/01/20 09:34:40;;;;;;;17.20;7.65;;;;;;;4.01;49.44;97185.94;5063287;28;20048;-61
2022/01/20 09:37:07;;;;;;;15.10;7.13;;;;;;;5.42;48.80;97362.09;5064209;28;20499;-63
2022/01/20 09:39:39;;;;;;;22.90;8.63;;;;;;;5.29;49.22;97347.44;5064303;28;20052;-63
2022/01/20 09:42:07;;;;;;;14.60;5.18;;;;;;;5.43;47.63;97352.72;5063394;28;20048;-63
2022/01/20 09:44:35;;;;;;;9.18;4.93;;;;;;;5.50;47.46;97350.28;5070052;28;20048;-62
2022/01/20 09:47:02;;;;;;;12.98;5.57;;;;;;;4.65;48.04;97256.09;5062365;28;20055;-65
2022/01/20 09:49:29;;;;;;;8.30;4.32;;;;;;;5.40;46.84;97342.41;5063786;28;20139;-62
2022/01/20 09:51:56;;;;;;;9.70;4.43;;;;;;;4.93;46.08;97217.28;5063949;28;20048;-61
2022/01/20 09:54:23;;;;;;;13.45;5.78;;;;;;;5.78;45.80;97332.19;5080590;28;20135;-62
2022/01/20 09:56:50;;;;;;;10.43;4.10;;;;;;;5.10;44.67;97200.72;5074831;28;20507;-61
2022/01/20 09:59:17;;;;;;;9.15;5.05;;;;;;;5.55;44.27;97306.09;5064022;28;20159;-60
2022/01/20 10:01:46;;;;;;;7.50;3.83;;;;;;;5.08;43.06;97280.66;5063333;28;20045;-65
2022/01/20 10:04:21;;;;;;;10.57;3.60;;;;;;;5.47;41.57;97298.75;5062390;28;20056;-63
2022/01/20 10:06:59;;;;;;;5.85;3.55;;;;;;;5.86;41.30;97306.63;5062083;28;20084;-61
2022/01/20 10:09:34;;;;;;;14.52;4.43;;;;;;;5.77;42.06;97284.66;5063961;28;20066;-59
2022/01/20 10:12:03;;;;;;;9.52;4.72;;;;;;;5.27;42.48;97266.50;5063043;28;20067;-62
2022/01/20 10:14:49;;;;;;;35.28;14.93;;;;;;;5.86;42.86;97285.41;5061842;28;20052;-61
2022/01/20 10:17:21;;;;;;;11.38;5.35;;;;;;;5.95;41.25;97249.63;5061527;28;20057;-62
2022/01/20 10:19:58;;;;;;;11.35;5.95;;;;;;;5.60;40.75;97152.06;5061319;28;20048;-61
2022/01/20 10:22:25;;;;;;;5.95;3.72;;;;;;;5.63;41.48;97270.34;5063018;28;20501;-62
2022/01/20 10:25:09;;;;;;;9.75;4.47;;;;;;;6.05;41.11;97262.97;5063085;28;20763;-60
2022/01/20 10:27:48;;;;;;;8.25;3.65;;;;;;;6.04;40.23;97211.84;5063956;28;20067;-64
2022/01/20 10:30:15;;;;;;;9.50;3.67;;;;;;;6.26;40.68;97247.25;5062752;28;20058;-60
2022/01/20 10:32:48;;;;;;;7.95;4.10;;;;;;;6.64;40.29;97234.09;5063257;28;20060;-67
2022/01/20 10:35:18;;;;;;;12.07;4.25;;;;;;;5.90;39.42;97159.09;5061468;28;20062;-66
2022/01/20 10:38:14;;;;;;;8.55;4.45;;;;;;;6.93;39.90;97236.69;5063801;28;20048;-62
2022/01/20 10:40:56;;;;;;;12.15;3.75;;;;;;;6.73;39.29;97182.50;5078204;28;20061;-63
2022/01/20 10:43:26;;;;;;;7.10;3.20;;;;;;;7.15;39.80;97225.22;5061945;28;20106;-64
2022/01/20 10:46:08;;;;;;;7.57;4.15;;;;;;;7.26;39.28;97218.09;5077366;28;20048;-63
2022/01/20 10:48:35;;;;;;;14.25;5.38;;;;;;;7.51;39.10;97218.88;5084346;28;20066;-63
2022/01/20 10:51:02;;;;;;;8.77;4.28;;;;;;;7.17;39.02;97148.56;5083198;28;20052;-65
2022/01/20 10:53:29;;;;;;;13.77;5.30;;;;;;;7.70;38.82;97217.16;5082868;28;20599;-63
2022/01/20 10:56:04;;;;;;;12.75;5.82;;;;;;;7.09;nan;97119.19;5081397;28;20578;-64
2022/01/20 10:58:32;;;;;;;48.35;18.35;;;;;;;7.97;39.07;97198.22;5083774;28;20052;-62
2022/01/20 11:01:00;;;;;;;15.25;7.05;;;;;;;7.24;38.08;97126.72;5083192;28;20055;-63
2022/01/20 11:03:28;;;;;;;16.02;5.28;;;;;;;7.56;39.20;97227.75;5083449;28;20052;-64
2022/01/20 11:05:56;;;;;;;9.30;4.05;;;;;;;6.71;38.75;97135.25;5083150;28;20048;-63
2022/01/20 11:08:23;;;;;;;11.20;4.60;;;;;;;7.28;39.93;97210.31;5083123;28;20131;-63
2022/01/20 11:10:52;;;;;;;19.67;8.52;;;;;;;7.42;39.87;97194.22;5082030;28;20055;-63
2022/01/20 11:13:22;;;;;;;23.42;9.23;;;;;;;7.81;39.78;97224.94;5080985;28;20044;-61
2022/01/20 11:15:50;;;;;;;34.75;12.60;;;;;;;8.09;39.04;97206.47;5078459;28;20063;-62
2022/01/20 11:18:17;;;;;;;32.22;9.50;;;;;;;7.86;39.28;97125.41;5063363;28;20048;-62
2022/01/20 11:20:49;;;;;;;66.13;17.42;;;;;;;8.55;38.36;97189.28;5062934;28;20048;-62
2022/01/20 11:23:16;;;;;;;62.35;22.42;;;;;;;8.82;38.18;97191.19;5063313;28;20138;-65
2022/01/20 11:25:44;;;;;;;29.60;11.55;;;;;;;8.45;37.90;97123.53;5058688;28;20122;-61
2022/01/20 11:28:16;;;;;;;9.48;4.70;;;;;;;8.23;37.60;97146.19;5075648;28;20489;-67
2022/01/20 11:31:03;;;;;;;11.98;5.97;;;;;;;8.09;38.55;97184.41;5083061;28;20416;-61
2022/01/20 11:33:36;;;;;;;10.10;4.25;;;;;;;7.70;39.16;97203.34;5066122;28;20057;-63
2022/01/20 11:36:05;;;;;;;45.60;18.42;;;;;;;7.98;38.97;97175.03;5061191;28;20139;-61
2022/01/20 11:38:43;;;;;;;8.23;2.97;;;;;;;6.99;39.33;97130.66;5062964;28;20051;-62
2022/01/20 11:41:13;;;;;;;9.73;4.53;;;;;;;7.00;39.98;97093.69;5062216;28;20495;-60
2022/01/20 11:43:43;;;;;;;10.27;6.30;;;;;;;7.49;39.82;97099.94;5062053;28;20056;-64
2022/01/20 11:46:15;;;;;;;16.75;6.75;;;;;;;7.63;38.77;97123.19;5082600;28;20048;-60
2022/01/20 11:48:57;;;;;;;15.35;7.22;;;;;;;7.26;38.76;97013.44;5083394;28;20554;-63
2022/01/20 11:51:41;;;;;;;9.15;5.10;;;;;;;7.99;38.89;97146.28;5082860;28;20056;-61
2022/01/20 11:54:34;;;;;;;14.73;6.00;;;;;;;8.43;38.05;97147.94;5081670;28;20056;-64
2022/01/20 11:57:20;;;;;;;12.55;6.10;;;;;;;8.50;38.29;97143.41;5082852;28;20163;-64
2022/01/20 11:59:56;;;;;;;38.15;16.05;;;;;;;8.56;37.23;97138.41;5083303;28;20052;-64
2022/01/20 12:02:39;;;;;;;9.20;4.70;;;;;;;8.69;36.90;97142.72;5081046;28;20051;-65
2022/01/20 12:05:30;;;;;;;11.57;5.70;;;;;;;8.32;37.86;97072.31;5084193;28;20120;-63
2022/01/20 12:08:14;;;;;;;10.77;4.28;;;;;;;8.73;37.27;97105.75;5087058;28;20052;-62
2022/01/20 12:10:43;;;;;;;11.63;3.92;;;;;;;8.86;37.04;97147.88;5086527;28;20063;-60
2022/01/20 12:13:16;;;;;;;13.63;5.38;;;;;;;8.80;36.89;97143.78;5086957;28;20568;-67
2022/01/20 12:15:51;;;;;;;9.88;5.32;;;;;;;8.92;37.51;97129.88;5083743;28;20062;-65
2022/01/20 12:18:21;;;;;;;7.47;5.22;;;;;;;9.14;36.54;97132.00;5065793;28;20053;-65
2022/01/20 12:20:48;;;;;;;34.15;13.32;;;;;;;9.23;36.80;97122.34;5069534;28;20139;-65
2022/01/20 12:23:14;;;;;;;23.17;9.93;;;;;;;9.29;36.65;97122.88;5084773;28;20051;-64
2022/01/20 12:25:41;;;;;;;11.85;5.57;;;;;;;9.18;36.08;97125.38;5084303;28;20052;-62
2022/01/20 12:28:11;;;;;;;8.27;4.22;;;;;;;8.63;36.65;97122.06;5084573;28;20064;-66
2022/01/20 12:30:50;;;;;;;12.40;4.85;;;;;;;8.64;37.04;97129.16;5085894;28;20048;-68
2022/01/20 12:33:22;;;;;;;9.00;4.72;;;;;;;6.36;36.60;96734.38;5085849;28;20133;-63
2022/01/20 12:35:52;;;;;;;7.55;4.32;;;;;;;8.64;37.08;97080.28;5085858;28;20584;-65
2022/01/20 12:38:28;;;;;;;13.32;6.70;;;;;;;8.88;37.53;97117.94;5086379;28;20052;-59
2022/01/20 12:41:18;;;;;;;12.15;6.00;;;;;;;8.95;37.92;97115.34;5084172;28;20051;-66
2022/01/20 12:43:53;;;;;;;6.00;3.95;;;;;;;8.80;37.43;97110.66;5086455;28;20071;-63
2022/01/20 12:46:24;;;;;;;11.27;4.63;;;;;;;8.25;38.34;97072.16;5085356;28;20051;-62
2022/01/20 12:48:56;;;;;;;9.18;4.68;;;;;;;7.30;37.98;96904.94;5085849;28;20048;-63
2022/01/20 12:51:51;;;;;;;8.82;4.57;;;;;;;8.32;37.46;97089.69;5083835;28;20131;-62
2022/01/20 12:54:26;;;;;;;10.25;5.07;;;;;;;8.52;37.76;97096.13;5084573;28;20059;-62